sensor_id;sensor_type;location;lat;lon;timestamp;temperature;humidity
6106;DHT22;3083;51.508;7.966;2024-01-30T00:00:04;6.50;99.90
6106;DHT22;3083;51.508;7.966;2024-01-30T00:02:32;6.40;99.90
6106;DHT22;3083;51.508;7.966;2024-01-30T00:04:59;6.40;99.90
6106;DHT22;3083;51.508;7.966;2024-01-30T00:07:27;6.30;99.90
6106;DHT22;3083;51.508;7.966;2024-01-30T00:09:54;6.40;99.90
6106;DHT22;3083;51.508;7.966;2024-01-30T00:12:20;6.30;99.90
6106;DHT22;3083;51.508;7.966;2024-01-30T00:14:47;6.30;99.90
6106;DHT22;3083;51.508;7.966;2024-01-30T00:17:14;6.30;99.90
6106;DHT22;3083;51.508;7.966;2024-01-30T00:19:41;6.20;99.90
6106;DHT22;3083;51.508;7.966;2024-01-30T00:22:08;6.20;99.90
6106;DHT22;3083;51.508;7.966;2024-01-30T00:24:36;6.10;99.90
6106;DHT22;3083;51.508;7.966;2024-01-30T00:27:03;6.10;99.90
6106;DHT22;3083;51.508;7.966;2024-01-30T00:29:30;6.10;99.90
6106;DHT22;3083;51.508;7.966;2024-01-30T00:31:59;6.00;99.90
6106;DHT22;3083;51.508;7.966;2024-01-30T00:34:26;6.00;99.90
6106;DHT22;3083;51.508;7.966;2024-01-30T00:36:52;6.00;99.90
6106;DHT22;3083;51.508;7.966;2024-01-30T00:39:19;5.90;99.90
6106;DHT22;3083;51.508;7.966;2024-01-30T00:41:48;5.90;99.90
6106;DHT22;3083;51.508;7.966;2024-01-30T00:44:15;5.90;99.90
6106;DHT22;3083;51.508;7.966;2024-01-30T00:46:41;5.90;99.90
6106;DHT22;3083;51.508;7.966;2024-01-30T00:49:08;5.90;99.90
6106;DHT22;3083;51.508;7.966;2024-01-30T00:51:35;5.90;99.90
6106;DHT22;3083;51.508;7.966;2024-01-30T00:54:02;5.80;99.90
6106;DHT22;3083;51.508;7.966;2024-01-30T00:56:29;5.80;99.90
6106;DHT22;3083;51.508;7.966;2024-01-30T00:58:57;5.80;99.90
6106;DHT22;3083;51.508;7.966;2024-01-30T01:01:24;5.70;99.90
6106;DHT22;3083;51.508;7.966;2024-01-30T01:03:51;5.70;99.90
6106;DHT22;3083;51.508;7.966;2024-01-30T01:06:18;5.70;99.90
6106;DHT22;3083;51.508;7.966;2024-01-30T01:08:45;5.70;99.90
6106;DHT22;3083;51.508;7.966;2024-01-30T01:11:12;5.70;99.90
6106;DHT22;3083;51.508;7.966;2024-01-30T01:13:39;5.70;99.90
6106;DHT22;3083;51.508;7.966;2024-01-30T01:16:07;5.70;99.90
6106;DHT22;3083;51.508;7.966;2024-01-30T01:18:34;5.70;99.90
6106;DHT22;3083;51.508;7.966;2024-01-30T01:21:00;5.70;99.90
6106;DHT22;3083;51.508;7.966;2024-01-30T01:23:27;5.60;99.90
6106;DHT22;3083;51.508;7.966;2024-01-30T01:25:54;5.60;99.90
6106;DHT22;3083;51.508;7.966;2024-01-30T01:28:21;5.60;99.90
6106;DHT22;3083;51.508;7.966;2024-01-30T01:30:48;5.60;99.90
6106;DHT22;3083;51.508;7.966;2024-01-30T01:33:16;5.60;99.90
6106;DHT22;3083;51.508;7.966;2024-01-30T01:35:43;5.50;99.90
6106;DHT22;3083;51.508;7.966;2024-01-30T01:38:10;5.50;99.90
6106;DHT22;3083;51.508;7.966;2024-01-30T01:40:37;5.50;99.90
6106;DHT22;3083;51.508;7.966;2024-01-30T01:43:05;5.50;99.90
6106;DHT22;3083;51.508;7.966;2024-01-30T01:45:32;5.50;99.90
6106;DHT22;3083;51.508;7.966;2024-01-30T01:47:59;5.50;99.90
6106;DHT22;3083;51.508;7.966;2024-01-30T01:50:28;5.50;99.90
6106;DHT22;3083;51.508;7.966;2024-01-30T01:52:55;5.50;99.90
6106;DHT22;3083;51.508;7.966;2024-01-30T01:55:22;5.40;99.90
6106;DHT22;3083;51.508;7.966;2024-01-30T01:57:52;5.40;99.90
6106;DHT22;3083;51.508;7.966;2024-01-30T02:00:20;5.40;99.90
6106;DHT22;3083;51.508;7.966;2024-01-30T02:02:47;5.40;99.90
6106;DHT22;3083;51.508;7.966;2024-01-30T02:05:14;5.40;99.90
6106;DHT22;3083;51.508;7.966;2024-01-30T02:07:42;5.40;99.90
6106;DHT22;3083;51.508;7.966;2024-01-30T02:10:10;5.40;99.90
6106;DHT22;3083;51.508;7.966;2024-01-30T02:12:36;5.30;99.90
6106;DHT22;3083;51.508;7.966;2024-01-30T02:15:04;5.30;99.90
6106;DHT22;3083;51.508;7.966;2024-01-30T02:17:33;5.30;99.90
6106;DHT22;3083;51.508;7.966;2024-01-30T02:20:00;5.30;99.90
6106;DHT22;3083;51.508;7.966;2024-01-30T02:22:28;5.20;99.90
6106;DHT22;3083;51.508;7.966;2024-01-30T02:24:55;5.20;99.90
6106;DHT22;3083;51.508;7.966;2024-01-30T02:27:22;5.20;99.90
6106;DHT22;3083;51.508;7.966;2024-01-30T02:29:49;5.20;99.90
6106;DHT22;3083;51.508;7.966;2024-01-30T02:32:15;5.20;99.90
6106;DHT22;3083;51.508;7.966;2024-01-30T02:34:43;5.20;99.90
6106;DHT22;3083;51.508;7.966;2024-01-30T02:37:09;5.20;99.90
6106;DHT22;3083;51.508;7.966;2024-01-30T02:39:37;5.20;99.90
6106;DHT22;3083;51.508;7.966;2024-01-30T02:42:05;5.20;99.90
6106;DHT22;3083;51.508;7.966;2024-01-30T02:44:32;5.20;99.90
6106;DHT22;3083;51.508;7.966;2024-01-30T02:46:59;5.20;99.90
6106;DHT22;3083;51.508;7.966;2024-01-30T02:49:25;5.20;99.90
6106;DHT22;3083;51.508;7.966;2024-01-30T02:51:54;5.20;99.90
6106;DHT22;3083;51.508;7.966;2024-01-30T02:54:22;5.20;99.90
6106;DHT22;3083;51.508;7.966;2024-01-30T02:56:50;5.30;99.90
6106;DHT22;3083;51.508;7.966;2024-01-30T02:59:17;5.30;99.90
6106;DHT22;3083;51.508;7.966;2024-01-30T03:01:44;5.30;99.90
6106;DHT22;3083;51.508;7.966;2024-01-30T03:04:12;5.30;99.90
6106;DHT22;3083;51.508;7.966;2024-01-30T03:06:39;5.30;99.90
6106;DHT22;3083;51.508;7.966;2024-01-30T03:09:11;5.30;99.90
6106;DHT22;3083;51.508;7.966;2024-01-30T03:11:36;5.30;99.90
6106;DHT22;3083;51.508;7.966;2024-01-30T03:14:05;5.30;99.90
6106;DHT22;3083;51.508;7.966;2024-01-30T03:16:31;5.30;99.90
6106;DHT22;3083;51.508;7.966;2024-01-30T03:18:58;5.30;99.90
6106;DHT22;3083;51.508;7.966;2024-01-30T03:21:26;5.40;99.90
6106;DHT22;3083;51.508;7.966;2024-01-30T03:23:53;5.40;99.90
6106;DHT22;3083;51.508;7.966;2024-01-30T03:26:20;5.40;99.90
6106;DHT22;3083;51.508;7.966;2024-01-30T03:28:47;5.40;99.90
6106;DHT22;3083;51.508;7.966;2024-01-30T03:31:16;5.40;99.90
6106;DHT22;3083;51.508;7.966;2024-01-30T03:33:42;5.50;99.90
6106;DHT22;3083;51.508;7.966;2024-01-30T03:36:10;5.50;99.90
6106;DHT22;3083;51.508;7.966;2024-01-30T03:38:37;5.50;99.90
6106;DHT22;3083;51.508;7.966;2024-01-30T03:41:07;5.50;99.90
6106;DHT22;3083;51.508;7.966;2024-01-30T03:43:34;5.40;99.90
6106;DHT22;3083;51.508;7.966;2024-01-30T03:46:01;5.40;99.90
6106;DHT22;3083;51.508;7.966;2024-01-30T03:48:30;5.40;99.90
6106;DHT22;3083;51.508;7.966;2024-01-30T03:50:57;5.40;99.90
6106;DHT22;3083;51.508;7.966;2024-01-30T03:53:23;5.40;99.90
6106;DHT22;3083;51.508;7.966;2024-01-30T03:55:51;5.40;99.90
6106;DHT22;3083;51.508;7.966;2024-01-30T03:58:18;5.40;99.90
6106;DHT22;3083;51.508;7.966;2024-01-30T04:00:44;5.50;99.90
6106;DHT22;3083;51.508;7.966;2024-01-30T04:03:11;5.50;99.90
6106;DHT22;3083;51.508;7.966;2024-01-30T04:05:39;5.50;99.90
6106;DHT22;3083;51.508;7.966;2024-01-30T04:08:07;5.50;99.90
6106;DHT22;3083;51.508;7.966;2024-01-30T04:10:34;5.60;99.90
6106;DHT22;3083;51.508;7.966;2024-01-30T04:13:01;5.60;99.90
6106;DHT22;3083;51.508;7.966;2024-01-30T04:15:27;5.60;99.90
6106;DHT22;3083;51.508;7.966;2024-01-30T04:17:57;5.70;99.90
6106;DHT22;3083;51.508;7.966;2024-01-30T04:20:24;5.70;99.90
6106;DHT22;3083;51.508;7.966;2024-01-30T04:22:52;5.70;99.90
6106;DHT22;3083;51.508;7.966;2024-01-30T04:25:19;5.70;99.90
6106;DHT22;3083;51.508;7.966;2024-01-30T04:27:46;5.70;99.90
6106;DHT22;3083;51.508;7.966;2024-01-30T04:30:13;5.70;99.90
6106;DHT22;3083;51.508;7.966;2024-01-30T04:32:40;5.70;99.90
6106;DHT22;3083;51.508;7.966;2024-01-30T04:35:07;5.70;99.90
6106;DHT22;3083;51.508;7.966;2024-01-30T04:37:34;5.70;99.90
6106;DHT22;3083;51.508;7.966;2024-01-30T04:40:03;5.60;99.90
6106;DHT22;3083;51.508;7.966;2024-01-30T04:42:30;5.60;99.90
6106;DHT22;3083;51.508;7.966;2024-01-30T04:44:57;5.50;99.90
6106;DHT22;3083;51.508;7.966;2024-01-30T04:47:24;5.50;99.90
6106;DHT22;3083;51.508;7.966;2024-01-30T04:49:51;5.40;99.90
6106;DHT22;3083;51.508;7.966;2024-01-30T04:52:18;5.40;99.90
6106;DHT22;3083;51.508;7.966;2024-01-30T04:54:45;5.40;99.90
6106;DHT22;3083;51.508;7.966;2024-01-30T04:57:13;5.40;99.90
6106;DHT22;3083;51.508;7.966;2024-01-30T04:59:40;5.40;99.90
6106;DHT22;3083;51.508;7.966;2024-01-30T05:02:07;5.40;99.90
6106;DHT22;3083;51.508;7.966;2024-01-30T05:04:34;5.40;99.90
6106;DHT22;3083;51.508;7.966;2024-01-30T05:07:00;5.40;99.90
6106;DHT22;3083;51.508;7.966;2024-01-30T05:09:27;5.40;99.90
6106;DHT22;3083;51.508;7.966;2024-01-30T05:11:54;5.40;99.90
6106;DHT22;3083;51.508;7.966;2024-01-30T05:14:22;5.40;99.90
6106;DHT22;3083;51.508;7.966;2024-01-30T05:16:49;5.40;99.90
6106;DHT22;3083;51.508;7.966;2024-01-30T05:19:16;5.30;99.90
6106;DHT22;3083;51.508;7.966;2024-01-30T05:21:44;5.30;99.90
6106;DHT22;3083;51.508;7.966;2024-01-30T05:24:11;5.30;99.90
6106;DHT22;3083;51.508;7.966;2024-01-30T05:26:38;5.30;99.90
6106;DHT22;3083;51.508;7.966;2024-01-30T05:29:05;5.30;99.90
6106;DHT22;3083;51.508;7.966;2024-01-30T05:31:33;5.30;99.90
6106;DHT22;3083;51.508;7.966;2024-01-30T05:34:00;5.30;99.90
6106;DHT22;3083;51.508;7.966;2024-01-30T05:36:27;5.30;99.90
6106;DHT22;3083;51.508;7.966;2024-01-30T05:38:54;5.40;99.90
6106;DHT22;3083;51.508;7.966;2024-01-30T05:41:20;5.40;99.90
6106;DHT22;3083;51.508;7.966;2024-01-30T05:43:47;5.50;99.90
6106;DHT22;3083;51.508;7.966;2024-01-30T05:46:14;5.50;99.90
6106;DHT22;3083;51.508;7.966;2024-01-30T05:48:42;5.60;99.90
6106;DHT22;3083;51.508;7.966;2024-01-30T05:51:09;5.70;99.90
6106;DHT22;3083;51.508;7.966;2024-01-30T05:53:36;5.80;99.90
6106;DHT22;3083;51.508;7.966;2024-01-30T05:56:04;5.90;99.90
6106;DHT22;3083;51.508;7.966;2024-01-30T05:58:31;5.90;99.90
6106;DHT22;3083;51.508;7.966;2024-01-30T06:00:58;6.00;99.90
6106;DHT22;3083;51.508;7.966;2024-01-30T06:03:25;6.00;99.90
6106;DHT22;3083;51.508;7.966;2024-01-30T06:05:53;6.00;99.90
6106;DHT22;3083;51.508;7.966;2024-01-30T06:08:20;6.00;99.90
6106;DHT22;3083;51.508;7.966;2024-01-30T06:10:46;6.10;99.90
6106;DHT22;3083;51.508;7.966;2024-01-30T06:13:13;6.20;99.90
6106;DHT22;3083;51.508;7.966;2024-01-30T06:15:40;6.20;99.90
6106;DHT22;3083;51.508;7.966;2024-01-30T06:18:07;6.30;99.90
6106;DHT22;3083;51.508;7.966;2024-01-30T06:20:34;6.30;99.90
6106;DHT22;3083;51.508;7.966;2024-01-30T06:23:02;6.30;99.90
6106;DHT22;3083;51.508;7.966;2024-01-30T06:25:29;6.30;99.90
6106;DHT22;3083;51.508;7.966;2024-01-30T06:27:56;6.30;99.90
6106;DHT22;3083;51.508;7.966;2024-01-30T06:30:23;6.30;99.90
6106;DHT22;3083;51.508;7.966;2024-01-30T06:32:50;6.30;99.90
6106;DHT22;3083;51.508;7.966;2024-01-30T06:35:16;6.20;99.90
6106;DHT22;3083;51.508;7.966;2024-01-30T06:37:44;6.20;99.90
6106;DHT22;3083;51.508;7.966;2024-01-30T06:40:12;6.10;99.90
6106;DHT22;3083;51.508;7.966;2024-01-30T06:42:39;6.10;99.90
6106;DHT22;3083;51.508;7.966;2024-01-30T06:45:07;6.10;99.90
6106;DHT22;3083;51.508;7.966;2024-01-30T06:47:34;6.10;99.90
6106;DHT22;3083;51.508;7.966;2024-01-30T06:50:01;6.10;99.90
6106;DHT22;3083;51.508;7.966;2024-01-30T06:52:29;6.10;99.90
6106;DHT22;3083;51.508;7.966;2024-01-30T06:54:55;6.10;99.90
6106;DHT22;3083;51.508;7.966;2024-01-30T06:57:24;6.20;99.90
6106;DHT22;3083;51.508;7.966;2024-01-30T06:59:55;6.10;99.90
6106;DHT22;3083;51.508;7.966;2024-01-30T07:02:21;6.10;99.90
6106;DHT22;3083;51.508;7.966;2024-01-30T07:04:48;6.10;99.90
6106;DHT22;3083;51.508;7.966;2024-01-30T07:07:16;6.10;99.90
6106;DHT22;3083;51.508;7.966;2024-01-30T07:09:42;6.10;99.90
6106;DHT22;3083;51.508;7.966;2024-01-30T07:12:13;6.10;99.90
6106;DHT22;3083;51.508;7.966;2024-01-30T07:14:41;6.10;99.90
6106;DHT22;3083;51.508;7.966;2024-01-30T07:17:13;6.10;99.90
6106;DHT22;3083;51.508;7.966;2024-01-30T07:19:40;6.10;99.90
6106;DHT22;3083;51.508;7.966;2024-01-30T07:22:07;6.20;99.90
6106;DHT22;3083;51.508;7.966;2024-01-30T07:24:34;6.20;99.90
6106;DHT22;3083;51.508;7.966;2024-01-30T07:27:02;6.20;99.90
6106;DHT22;3083;51.508;7.966;2024-01-30T07:29:29;6.30;99.90
6106;DHT22;3083;51.508;7.966;2024-01-30T07:31:57;6.30;99.90
6106;DHT22;3083;51.508;7.966;2024-01-30T07:34:24;6.40;99.90
6106;DHT22;3083;51.508;7.966;2024-01-30T07:36:50;6.40;99.90
6106;DHT22;3083;51.508;7.966;2024-01-30T07:39:17;6.50;99.90
6106;DHT22;3083;51.508;7.966;2024-01-30T07:41:44;6.60;99.90
6106;DHT22;3083;51.508;7.966;2024-01-30T07:44:11;6.60;99.90
6106;DHT22;3083;51.508;7.966;2024-01-30T07:46:38;6.70;99.90
6106;DHT22;3083;51.508;7.966;2024-01-30T07:49:06;6.80;99.90
6106;DHT22;3083;51.508;7.966;2024-01-30T07:51:33;6.80;99.90
6106;DHT22;3083;51.508;7.966;2024-01-30T07:54:00;6.90;99.90
6106;DHT22;3083;51.508;7.966;2024-01-30T08:03:11;7.10;99.90
6106;DHT22;3083;51.508;7.966;2024-01-30T08:05:39;7.30;99.90
6106;DHT22;3083;51.508;7.966;2024-01-30T08:08:06;7.40;99.90
6106;DHT22;3083;51.508;7.966;2024-01-30T08:10:33;7.50;99.90
6106;DHT22;3083;51.508;7.966;2024-01-30T08:13:01;7.70;99.90
6106;DHT22;3083;51.508;7.966;2024-01-30T08:15:28;7.70;99.90
6106;DHT22;3083;51.508;7.966;2024-01-30T08:17:54;7.80;99.90
6106;DHT22;3083;51.508;7.966;2024-01-30T08:20:23;7.90;99.90
6106;DHT22;3083;51.508;7.966;2024-01-30T08:22:52;8.00;99.90
6106;DHT22;3083;51.508;7.966;2024-01-30T08:25:19;8.00;99.90
6106;DHT22;3083;51.508;7.966;2024-01-30T08:27:47;8.10;99.90
6106;DHT22;3083;51.508;7.966;2024-01-30T08:30:14;8.10;99.90
6106;DHT22;3083;51.508;7.966;2024-01-30T08:32:41;8.20;99.90
6106;DHT22;3083;51.508;7.966;2024-01-30T08:35:08;8.30;99.90
6106;DHT22;3083;51.508;7.966;2024-01-30T08:37:35;8.30;99.90
6106;DHT22;3083;51.508;7.966;2024-01-30T08:40:04;8.40;99.90
6106;DHT22;3083;51.508;7.966;2024-01-30T08:42:31;8.50;99.90
6106;DHT22;3083;51.508;7.966;2024-01-30T08:44:58;8.60;99.90
6106;DHT22;3083;51.508;7.966;2024-01-30T08:47:25;8.70;99.90
6106;DHT22;3083;51.508;7.966;2024-01-30T08:49:52;8.80;99.90
6106;DHT22;3083;51.508;7.966;2024-01-30T08:52:19;8.90;99.90
6106;DHT22;3083;51.508;7.966;2024-01-30T08:54:46;9.00;99.90
6106;DHT22;3083;51.508;7.966;2024-01-30T08:57:14;9.00;99.90
6106;DHT22;3083;51.508;7.966;2024-01-30T08:59:41;9.10;99.90
6106;DHT22;3083;51.508;7.966;2024-01-30T09:02:10;9.20;99.90
6106;DHT22;3083;51.508;7.966;2024-01-30T09:04:38;9.20;99.90
6106;DHT22;3083;51.508;7.966;2024-01-30T09:07:05;9.30;99.90
6106;DHT22;3083;51.508;7.966;2024-01-30T09:09:34;9.40;99.90
6106;DHT22;3083;51.508;7.966;2024-01-30T09:12:01;9.40;99.90
6106;DHT22;3083;51.508;7.966;2024-01-30T09:14:33;9.50;99.90
6106;DHT22;3083;51.508;7.966;2024-01-30T09:17:00;9.60;99.90
6106;DHT22;3083;51.508;7.966;2024-01-30T09:19:29;9.60;99.90
6106;DHT22;3083;51.508;7.966;2024-01-30T09:21:56;9.60;99.90
6106;DHT22;3083;51.508;7.966;2024-01-30T09:24:23;9.70;99.90
6106;DHT22;3083;51.508;7.966;2024-01-30T09:26:50;9.70;99.90
6106;DHT22;3083;51.508;7.966;2024-01-30T09:29:17;9.80;99.90
6106;DHT22;3083;51.508;7.966;2024-01-30T09:31:45;9.80;99.90
6106;DHT22;3083;51.508;7.966;2024-01-30T09:34:12;9.80;99.90
6106;DHT22;3083;51.508;7.966;2024-01-30T09:36:39;9.90;99.90
6106;DHT22;3083;51.508;7.966;2024-01-30T09:39:06;9.90;99.90
6106;DHT22;3083;51.508;7.966;2024-01-30T09:41:36;10.00;99.90
6106;DHT22;3083;51.508;7.966;2024-01-30T09:44:09;10.10;99.90
6106;DHT22;3083;51.508;7.966;2024-01-30T09:46:38;10.10;99.90
6106;DHT22;3083;51.508;7.966;2024-01-30T09:49:06;10.20;99.90
6106;DHT22;3083;51.508;7.966;2024-01-30T09:51:35;10.30;99.90
6106;DHT22;3083;51.508;7.966;2024-01-30T09:54:04;10.30;99.90
6106;DHT22;3083;51.508;7.966;2024-01-30T09:56:31;10.40;99.90
6106;DHT22;3083;51.508;7.966;2024-01-30T09:58:58;10.40;99.90
6106;DHT22;3083;51.508;7.966;2024-01-30T10:01:25;10.50;99.90
6106;DHT22;3083;51.508;7.966;2024-01-30T10:03:54;10.50;99.90
6106;DHT22;3083;51.508;7.966;2024-01-30T10:06:24;10.50;99.90
6106;DHT22;3083;51.508;7.966;2024-01-30T10:08:51;10.60;99.90
6106;DHT22;3083;51.508;7.966;2024-01-30T10:11:18;10.60;99.90
6106;DHT22;3083;51.508;7.966;2024-01-30T10:13:45;10.70;99.90
6106;DHT22;3083;51.508;7.966;2024-01-30T10:16:14;10.80;99.90
6106;DHT22;3083;51.508;7.966;2024-01-30T10:18:42;10.90;99.90
6106;DHT22;3083;51.508;7.966;2024-01-30T10:21:09;11.00;99.90
6106;DHT22;3083;51.508;7.966;2024-01-30T10:23:40;11.10;99.90
6106;DHT22;3083;51.508;7.966;2024-01-30T10:26:07;11.20;99.90
6106;DHT22;3083;51.508;7.966;2024-01-30T10:28:34;11.20;99.90
6106;DHT22;3083;51.508;7.966;2024-01-30T10:31:02;11.30;99.90
6106;DHT22;3083;51.508;7.966;2024-01-30T10:33:29;11.30;99.90
6106;DHT22;3083;51.508;7.966;2024-01-30T10:36:00;11.40;99.90
6106;DHT22;3083;51.508;7.966;2024-01-30T10:38:29;11.50;99.90
6106;DHT22;3083;51.508;7.966;2024-01-30T10:40:59;11.60;99.90
6106;DHT22;3083;51.508;7.966;2024-01-30T10:43:31;11.70;99.90
6106;DHT22;3083;51.508;7.966;2024-01-30T10:46:09;11.80;99.90
6106;DHT22;3083;51.508;7.966;2024-01-30T10:48:41;11.90;99.90
6106;DHT22;3083;51.508;7.966;2024-01-30T10:51:11;12.00;99.90
6106;DHT22;3083;51.508;7.966;2024-01-30T10:53:39;12.20;99.90
6106;DHT22;3083;51.508;7.966;2024-01-30T10:56:08;12.30;99.90
6106;DHT22;3083;51.508;7.966;2024-01-30T10:58:37;12.30;99.90
6106;DHT22;3083;51.508;7.966;2024-01-30T11:01:04;12.40;99.90
6106;DHT22;3083;51.508;7.966;2024-01-30T11:03:32;12.40;99.90
6106;DHT22;3083;51.508;7.966;2024-01-30T11:06:00;12.40;99.90
6106;DHT22;3083;51.508;7.966;2024-01-30T11:08:27;12.40;99.90
6106;DHT22;3083;51.508;7.966;2024-01-30T11:10:56;12.40;99.90
6106;DHT22;3083;51.508;7.966;2024-01-30T11:13:29;12.40;99.90
6106;DHT22;3083;51.508;7.966;2024-01-30T11:15:59;12.50;99.90
6106;DHT22;3083;51.508;7.966;2024-01-30T11:18:29;12.40;99.90
6106;DHT22;3083;51.508;7.966;2024-01-30T11:20:56;12.40;99.90
6106;DHT22;3083;51.508;7.966;2024-01-30T11:23:24;12.50;99.90
6106;DHT22;3083;51.508;7.966;2024-01-30T11:25:52;12.50;99.90
6106;DHT22;3083;51.508;7.966;2024-01-30T11:28:22;12.50;99.90
6106;DHT22;3083;51.508;7.966;2024-01-30T11:30:50;12.50;99.90
6106;DHT22;3083;51.508;7.966;2024-01-30T11:33:28;12.50;99.90
6106;DHT22;3083;51.508;7.966;2024-01-30T11:35:57;12.50;99.90
6106;DHT22;3083;51.508;7.966;2024-01-30T11:38:26;12.50;99.90
6106;DHT22;3083;51.508;7.966;2024-01-30T11:40:54;12.60;99.90
6106;DHT22;3083;51.508;7.966;2024-01-30T11:43:21;12.60;99.90
6106;DHT22;3083;51.508;7.966;2024-01-30T11:45:50;12.60;99.90
6106;DHT22;3083;51.508;7.966;2024-01-30T11:48:17;12.70;99.90
6106;DHT22;3083;51.508;7.966;2024-01-30T11:50:44;12.80;99.90
6106;DHT22;3083;51.508;7.966;2024-01-30T11:53:12;13.00;99.90
6106;DHT22;3083;51.508;7.966;2024-01-30T11:55:39;13.20;99.90
6106;DHT22;3083;51.508;7.966;2024-01-30T11:58:06;13.40;99.90
6106;DHT22;3083;51.508;7.966;2024-01-30T12:00:34;13.50;99.90
6106;DHT22;3083;51.508;7.966;2024-01-30T12:03:03;13.50;99.90
6106;DHT22;3083;51.508;7.966;2024-01-30T12:05:32;13.50;99.90
6106;DHT22;3083;51.508;7.966;2024-01-30T12:07:58;13.50;99.90
6106;DHT22;3083;51.508;7.966;2024-01-30T12:10:25;13.50;99.90
6106;DHT22;3083;51.508;7.966;2024-01-30T12:12:54;13.50;99.90
6106;DHT22;3083;51.508;7.966;2024-01-30T12:15:22;13.50;99.90
6106;DHT22;3083;51.508;7.966;2024-01-30T12:17:49;13.50;99.90
6106;DHT22;3083;51.508;7.966;2024-01-30T12:20:20;13.60;99.90
6106;DHT22;3083;51.508;7.966;2024-01-30T12:22:49;13.80;99.90
6106;DHT22;3083;51.508;7.966;2024-01-30T12:25:18;13.90;99.90
6106;DHT22;3083;51.508;7.966;2024-01-30T12:27:48;14.00;99.90
6106;DHT22;3083;51.508;7.966;2024-01-30T12:30:16;14.00;99.90
6106;DHT22;3083;51.508;7.966;2024-01-30T12:32:43;13.90;99.90
6106;DHT22;3083;51.508;7.966;2024-01-30T12:35:11;13.90;99.90
6106;DHT22;3083;51.508;7.966;2024-01-30T12:37:40;13.90;99.90
6106;DHT22;3083;51.508;7.966;2024-01-30T12:40:08;13.80;99.90
6106;DHT22;3083;51.508;7.966;2024-01-30T12:42:35;13.80;99.90
6106;DHT22;3083;51.508;7.966;2024-01-30T12:45:03;13.80;99.90
6106;DHT22;3083;51.508;7.966;2024-01-30T12:47:30;13.80;99.90
6106;DHT22;3083;51.508;7.966;2024-01-30T12:49:58;13.80;99.90
6106;DHT22;3083;51.508;7.966;2024-01-30T12:52:25;13.80;99.90
6106;DHT22;3083;51.508;7.966;2024-01-30T12:54:54;13.80;99.90
6106;DHT22;3083;51.508;7.966;2024-01-30T12:57:21;13.70;99.90
6106;DHT22;3083;51.508;7.966;2024-01-30T12:59:48;13.70;99.90
6106;DHT22;3083;51.508;7.966;2024-01-30T13:02:16;13.70;99.90
6106;DHT22;3083;51.508;7.966;2024-01-30T13:04:45;13.60;99.90
6106;DHT22;3083;51.508;7.966;2024-01-30T13:07:12;13.60;99.90
6106;DHT22;3083;51.508;7.966;2024-01-30T13:09:39;13.60;99.90
6106;DHT22;3083;51.508;7.966;2024-01-30T13:12:07;13.60;99.90
6106;DHT22;3083;51.508;7.966;2024-01-30T13:14:34;13.50;99.90
6106;DHT22;3083;51.508;7.966;2024-01-30T13:17:01;13.40;99.90
6106;DHT22;3083;51.508;7.966;2024-01-30T13:19:28;13.30;99.90
6106;DHT22;3083;51.508;7.966;2024-01-30T13:21:55;13.20;99.90
6106;DHT22;3083;51.508;7.966;2024-01-30T13:24:22;13.20;99.90
6106;DHT22;3083;51.508;7.966;2024-01-30T13:26:49;13.20;99.90
6106;DHT22;3083;51.508;7.966;2024-01-30T13:29:18;13.10;99.90
6106;DHT22;3083;51.508;7.966;2024-01-30T13:31:45;13.10;99.90
6106;DHT22;3083;51.508;7.966;2024-01-30T13:34:12;13.10;99.90
6106;DHT22;3083;51.508;7.966;2024-01-30T13:36:40;13.00;99.90
6106;DHT22;3083;51.508;7.966;2024-01-30T13:39:09;12.90;99.90
6106;DHT22;3083;51.508;7.966;2024-01-30T13:41:38;12.90;99.90
6106;DHT22;3083;51.508;7.966;2024-01-30T13:44:05;12.90;99.90
6106;DHT22;3083;51.508;7.966;2024-01-30T13:46:34;12.90;99.90
6106;DHT22;3083;51.508;7.966;2024-01-30T13:49:02;12.80;99.90
6106;DHT22;3083;51.508;7.966;2024-01-30T13:51:29;12.80;99.90
6106;DHT22;3083;51.508;7.966;2024-01-30T13:53:56;12.70;99.90
6106;DHT22;3083;51.508;7.966;2024-01-30T13:56:23;12.70;99.90
6106;DHT22;3083;51.508;7.966;2024-01-30T13:58:50;12.70;99.90
6106;DHT22;3083;51.508;7.966;2024-01-30T14:01:17;12.70;99.90
6106;DHT22;3083;51.508;7.966;2024-01-30T14:03:45;12.70;99.90
6106;DHT22;3083;51.508;7.966;2024-01-30T14:06:12;12.60;99.90
6106;DHT22;3083;51.508;7.966;2024-01-30T14:08:39;12.70;99.90
6106;DHT22;3083;51.508;7.966;2024-01-30T14:11:06;12.60;99.90
6106;DHT22;3083;51.508;7.966;2024-01-30T14:13:33;12.50;99.90
6106;DHT22;3083;51.508;7.966;2024-01-30T14:16:01;12.40;99.90
6106;DHT22;3083;51.508;7.966;2024-01-30T14:18:28;12.40;99.90
6106;DHT22;3083;51.508;7.966;2024-01-30T14:20:56;12.30;99.90
6106;DHT22;3083;51.508;7.966;2024-01-30T14:23:23;12.30;99.90
6106;DHT22;3083;51.508;7.966;2024-01-30T14:25:50;12.20;99.90
6106;DHT22;3083;51.508;7.966;2024-01-30T14:28:18;12.10;99.90
6106;DHT22;3083;51.508;7.966;2024-01-30T14:30:45;12.10;99.90
6106;DHT22;3083;51.508;7.966;2024-01-30T14:33:12;12.10;99.90
6106;DHT22;3083;51.508;7.966;2024-01-30T14:35:40;12.10;99.90
6106;DHT22;3083;51.508;7.966;2024-01-30T14:38:08;12.00;99.90
6106;DHT22;3083;51.508;7.966;2024-01-30T14:40:35;12.00;99.90
6106;DHT22;3083;51.508;7.966;2024-01-30T14:43:02;12.00;99.90
6106;DHT22;3083;51.508;7.966;2024-01-30T14:45:30;12.00;99.90
6106;DHT22;3083;51.508;7.966;2024-01-30T14:47:58;12.00;99.90
6106;DHT22;3083;51.508;7.966;2024-01-30T14:50:25;11.90;99.90
6106;DHT22;3083;51.508;7.966;2024-01-30T14:52:52;11.90;99.90
6106;DHT22;3083;51.508;7.966;2024-01-30T14:55:20;11.90;99.90
6106;DHT22;3083;51.508;7.966;2024-01-30T14:57:48;11.80;99.90
6106;DHT22;3083;51.508;7.966;2024-01-30T15:00:16;11.80;99.90
6106;DHT22;3083;51.508;7.966;2024-01-30T15:02:44;11.80;99.90
6106;DHT22;3083;51.508;7.966;2024-01-30T15:05:12;11.80;99.90
6106;DHT22;3083;51.508;7.966;2024-01-30T15:07:39;11.80;99.90
6106;DHT22;3083;51.508;7.966;2024-01-30T15:10:07;11.80;99.90
6106;DHT22;3083;51.508;7.966;2024-01-30T15:12:36;11.70;99.90
6106;DHT22;3083;51.508;7.966;2024-01-30T15:15:06;11.70;99.90
6106;DHT22;3083;51.508;7.966;2024-01-30T15:17:33;11.70;99.90
6106;DHT22;3083;51.508;7.966;2024-01-30T15:20:00;11.70;99.90
6106;DHT22;3083;51.508;7.966;2024-01-30T15:22:28;11.70;99.90
6106;DHT22;3083;51.508;7.966;2024-01-30T15:24:55;11.70;99.90
6106;DHT22;3083;51.508;7.966;2024-01-30T15:27:23;11.70;99.90
6106;DHT22;3083;51.508;7.966;2024-01-30T15:29:52;11.70;99.90
6106;DHT22;3083;51.508;7.966;2024-01-30T15:32:18;11.70;99.90
6106;DHT22;3083;51.508;7.966;2024-01-30T15:34:45;11.70;99.90
6106;DHT22;3083;51.508;7.966;2024-01-30T15:37:12;11.70;99.90
6106;DHT22;3083;51.508;7.966;2024-01-30T15:39:39;11.70;99.90
6106;DHT22;3083;51.508;7.966;2024-01-30T15:42:07;11.60;99.90
6106;DHT22;3083;51.508;7.966;2024-01-30T15:44:34;11.60;99.90
6106;DHT22;3083;51.508;7.966;2024-01-30T15:47:02;11.60;99.90
6106;DHT22;3083;51.508;7.966;2024-01-30T15:49:29;11.60;99.90
6106;DHT22;3083;51.508;7.966;2024-01-30T15:51:56;11.50;99.90
6106;DHT22;3083;51.508;7.966;2024-01-30T15:54:23;11.50;99.90
6106;DHT22;3083;51.508;7.966;2024-01-30T15:56:50;11.50;99.90
6106;DHT22;3083;51.508;7.966;2024-01-30T15:59:17;11.50;99.90
6106;DHT22;3083;51.508;7.966;2024-01-30T16:01:44;11.40;99.90
6106;DHT22;3083;51.508;7.966;2024-01-30T16:04:14;11.40;99.90
6106;DHT22;3083;51.508;7.966;2024-01-30T16:06:41;11.30;99.90
6106;DHT22;3083;51.508;7.966;2024-01-30T16:09:09;11.30;99.90
6106;DHT22;3083;51.508;7.966;2024-01-30T16:11:36;11.30;99.90
6106;DHT22;3083;51.508;7.966;2024-01-30T16:14:04;11.30;99.90
6106;DHT22;3083;51.508;7.966;2024-01-30T16:16:30;11.20;99.90
6106;DHT22;3083;51.508;7.966;2024-01-30T16:18:57;11.30;99.90